BIENTÔT MET'MAP
version 2.0 !

Prévue avant fin octobre,
la nouvelle version sera
plus belle, plus complète
et hébergée sur un serveur
3 fois plus puissant...
et toujours gratuite !


Pas compatible ?
Essayez la version Mobile !

SE CONNECTER : | S'inscrire | Disclaimer | Découvrir Orbifly |
Code OACI :

TAF - LGAL Dimokritos - 01 Jun 2020 22:32 UTC - Data Source NOAA   


- Altitude de l'aérodrome : 24 ft
- Code IATA : AXD
- Pas de NOTAMs connus.


LGAL - Dimokritos

Dernier METAR connu : 2015/08/11 07:50 LGAL 110750Z 18005KT CAVOK 28/18 Q1010
TAF TAF LGAL
Valide du 01 à 18h jusqu'au 02 à 03h UTC


011700Z 0118/0203 VRB05KT 9999 FEW018 SCT020
PROB40
TEMPO 0118/0121 5000 RA FEW018TCU SCT020
PROB30
TEMPO 0118/0120 3000 TSRA FEW018CB BKN020

Source NOAA


MET'MAP, la Météo Aéronautique d'un coup d'oeil ! - Copyright ORBIFLY Décembre 2007

Développement & Programmation : Alexandra Zaïnal
Co-Développement : Marc-Olivier Méhu
Soutien technique & logistique : Manuel Goepfert
Conception & Financement : Baudouin d'Aumeries